sensor_id;sensor_type;location;lat;lon;timestamp;P1;durP1;ratioP1;P2;durP2;ratioP2
15327;SDS011;7764;51.430;6.840;2023-10-13T00:01:02;24.55;;;15.80;;
15327;SDS011;7764;51.430;6.840;2023-10-13T00:03:32;21.23;;;15.57;;
15327;SDS011;7764;51.430;6.840;2023-10-13T00:05:59;21.65;;;15.15;;
15327;SDS011;7764;51.430;6.840;2023-10-13T00:08:28;22.60;;;15.30;;
15327;SDS011;7764;51.430;6.840;2023-10-13T00:10:55;21.52;;;15.25;;
15327;SDS011;7764;51.430;6.840;2023-10-13T00:13:25;22.40;;;15.30;;
15327;SDS011;7764;51.430;6.840;2023-10-13T00:15:54;23.23;;;14.60;;
15327;SDS011;7764;51.430;6.840;2023-10-13T00:18:23;21.65;;;14.13;;
15327;SDS011;7764;51.430;6.840;2023-10-13T00:20:52;23.70;;;15.15;;
15327;SDS011;7764;51.430;6.840;2023-10-13T00:23:21;23.02;;;15.65;;
15327;SDS011;7764;51.430;6.840;2023-10-13T00:25:51;22.05;;;14.65;;
15327;SDS011;7764;51.430;6.840;2023-10-13T00:28:28;21.23;;;14.23;;
15327;SDS011;7764;51.430;6.840;2023-10-13T00:31:09;22.40;;;14.80;;
15327;SDS011;7764;51.430;6.840;2023-10-13T00:33:37;20.20;;;14.13;;
15327;SDS011;7764;51.430;6.840;2023-10-13T00:36:04;21.30;;;14.32;;
15327;SDS011;7764;51.430;6.840;2023-10-13T00:38:33;21.30;;;14.43;;
15327;SDS011;7764;51.430;6.840;2023-10-13T00:41:00;20.80;;;14.57;;
15327;SDS011;7764;51.430;6.840;2023-10-13T00:43:43;21.67;;;14.55;;
15327;SDS011;7764;51.430;6.840;2023-10-13T00:46:14;22.23;;;14.65;;
15327;SDS011;7764;51.430;6.840;2023-10-13T00:48:44;20.00;;;13.82;;
15327;SDS011;7764;51.430;6.840;2023-10-13T00:51:17;20.13;;;14.00;;
15327;SDS011;7764;51.430;6.840;2023-10-13T00:53:47;23.00;;;14.18;;
15327;SDS011;7764;51.430;6.840;2023-10-13T00:56:15;24.77;;;14.32;;
15327;SDS011;7764;51.430;6.840;2023-10-13T00:58:46;22.08;;;13.77;;
15327;SDS011;7764;51.430;6.840;2023-10-13T01:01:16;23.90;;;14.45;;
15327;SDS011;7764;51.430;6.840;2023-10-13T01:03:43;19.65;;;14.68;;
15327;SDS011;7764;51.430;6.840;2023-10-13T01:06:13;19.40;;;13.63;;
15327;SDS011;7764;51.430;6.840;2023-10-13T01:08:41;19.52;;;14.98;;
15327;SDS011;7764;51.430;6.840;2023-10-13T01:11:10;19.63;;;13.85;;
15327;SDS011;7764;51.430;6.840;2023-10-13T01:13:36;24.02;;;13.95;;
15327;SDS011;7764;51.430;6.840;2023-10-13T01:16:03;20.52;;;14.68;;
15327;SDS011;7764;51.430;6.840;2023-10-13T01:18:31;20.83;;;13.25;;
15327;SDS011;7764;51.430;6.840;2023-10-13T01:20:57;19.80;;;14.20;;
15327;SDS011;7764;51.430;6.840;2023-10-13T01:23:25;20.75;;;14.05;;
15327;SDS011;7764;51.430;6.840;2023-10-13T01:25:53;18.77;;;13.68;;
15327;SDS011;7764;51.430;6.840;2023-10-13T01:28:21;21.35;;;14.93;;
15327;SDS011;7764;51.430;6.840;2023-10-13T01:30:49;19.88;;;14.05;;
15327;SDS011;7764;51.430;6.840;2023-10-13T01:33:15;21.40;;;15.07;;
15327;SDS011;7764;51.430;6.840;2023-10-13T01:35:42;24.80;;;15.00;;
15327;SDS011;7764;51.430;6.840;2023-10-13T01:38:12;18.50;;;14.00;;
15327;SDS011;7764;51.430;6.840;2023-10-13T01:40:41;21.83;;;14.45;;
15327;SDS011;7764;51.430;6.840;2023-10-13T01:43:08;23.25;;;15.20;;
15327;SDS011;7764;51.430;6.840;2023-10-13T01:45:36;25.88;;;15.32;;
15327;SDS011;7764;51.430;6.840;2023-10-13T01:48:04;20.38;;;13.90;;
15327;SDS011;7764;51.430;6.840;2023-10-13T01:50:32;20.13;;;14.60;;
15327;SDS011;7764;51.430;6.840;2023-10-13T01:53:01;19.83;;;14.35;;
15327;SDS011;7764;51.430;6.840;2023-10-13T01:55:37;25.08;;;15.50;;
15327;SDS011;7764;51.430;6.840;2023-10-13T01:58:09;20.60;;;15.20;;
15327;SDS011;7764;51.430;6.840;2023-10-13T02:00:40;23.73;;;15.15;;
15327;SDS011;7764;51.430;6.840;2023-10-13T02:03:07;23.13;;;15.68;;
15327;SDS011;7764;51.430;6.840;2023-10-13T02:05:41;24.48;;;16.42;;
15327;SDS011;7764;51.430;6.840;2023-10-13T02:08:12;23.67;;;17.45;;
15327;SDS011;7764;51.430;6.840;2023-10-13T02:10:44;20.38;;;14.70;;
15327;SDS011;7764;51.430;6.840;2023-10-13T02:13:13;20.10;;;14.90;;
15327;SDS011;7764;51.430;6.840;2023-10-13T02:15:44;20.92;;;14.25;;
15327;SDS011;7764;51.430;6.840;2023-10-13T02:18:12;20.67;;;14.75;;
15327;SDS011;7764;51.430;6.840;2023-10-13T02:20:45;22.15;;;15.43;;
15327;SDS011;7764;51.430;6.840;2023-10-13T02:23:19;19.42;;;14.45;;
15327;SDS011;7764;51.430;6.840;2023-10-13T02:25:46;19.33;;;14.75;;
15327;SDS011;7764;51.430;6.840;2023-10-13T02:28:13;22.38;;;15.50;;
15327;SDS011;7764;51.430;6.840;2023-10-13T02:30:46;22.63;;;16.33;;
15327;SDS011;7764;51.430;6.840;2023-10-13T02:33:15;22.30;;;16.83;;
15327;SDS011;7764;51.430;6.840;2023-10-13T02:35:46;24.38;;;15.63;;
15327;SDS011;7764;51.430;6.840;2023-10-13T02:38:18;19.88;;;14.57;;
15327;SDS011;7764;51.430;6.840;2023-10-13T02:40:52;22.73;;;15.20;;
15327;SDS011;7764;51.430;6.840;2023-10-13T02:43:20;22.80;;;14.60;;
15327;SDS011;7764;51.430;6.840;2023-10-13T02:45:53;20.17;;;14.23;;
15327;SDS011;7764;51.430;6.840;2023-10-13T02:48:23;18.63;;;14.30;;
15327;SDS011;7764;51.430;6.840;2023-10-13T02:50:56;22.02;;;14.23;;
15327;SDS011;7764;51.430;6.840;2023-10-13T02:53:22;23.45;;;14.88;;
15327;SDS011;7764;51.430;6.840;2023-10-13T02:55:54;20.73;;;14.23;;
15327;SDS011;7764;51.430;6.840;2023-10-13T02:58:23;20.15;;;14.38;;
15327;SDS011;7764;51.430;6.840;2023-10-13T03:01:03;22.13;;;18.42;;
15327;SDS011;7764;51.430;6.840;2023-10-13T03:03:42;21.45;;;15.20;;
15327;SDS011;7764;51.430;6.840;2023-10-13T03:06:12;23.25;;;14.82;;
15327;SDS011;7764;51.430;6.840;2023-10-13T03:08:39;18.73;;;14.25;;
15327;SDS011;7764;51.430;6.840;2023-10-13T03:11:08;22.13;;;15.00;;
15327;SDS011;7764;51.430;6.840;2023-10-13T03:13:36;21.05;;;15.15;;
15327;SDS011;7764;51.430;6.840;2023-10-13T03:16:12;19.65;;;15.20;;
15327;SDS011;7764;51.430;6.840;2023-10-13T03:18:43;20.45;;;14.73;;
15327;SDS011;7764;51.430;6.840;2023-10-13T03:21:18;34.40;;;27.27;;
15327;SDS011;7764;51.430;6.840;2023-10-13T03:23:54;22.80;;;16.13;;
15327;SDS011;7764;51.430;6.840;2023-10-13T03:26:21;23.23;;;15.93;;
15327;SDS011;7764;51.430;6.840;2023-10-13T03:28:49;24.38;;;16.20;;
15327;SDS011;7764;51.430;6.840;2023-10-13T03:31:19;23.50;;;16.83;;
15327;SDS011;7764;51.430;6.840;2023-10-13T03:33:52;26.95;;;17.73;;
15327;SDS011;7764;51.430;6.840;2023-10-13T03:36:24;26.00;;;17.38;;
15327;SDS011;7764;51.430;6.840;2023-10-13T03:39:09;23.30;;;17.45;;
15327;SDS011;7764;51.430;6.840;2023-10-13T03:41:39;27.38;;;18.98;;
15327;SDS011;7764;51.430;6.840;2023-10-13T03:44:07;26.27;;;18.95;;
15327;SDS011;7764;51.430;6.840;2023-10-13T03:46:38;23.58;;;18.08;;
15327;SDS011;7764;51.430;6.840;2023-10-13T03:49:07;26.77;;;18.70;;
15327;SDS011;7764;51.430;6.840;2023-10-13T03:51:38;26.70;;;18.25;;
15327;SDS011;7764;51.430;6.840;2023-10-13T03:54:05;30.27;;;19.13;;
15327;SDS011;7764;51.430;6.840;2023-10-13T03:56:33;26.60;;;20.17;;
15327;SDS011;7764;51.430;6.840;2023-10-13T03:59:05;28.52;;;19.80;;
15327;SDS011;7764;51.430;6.840;2023-10-13T04:01:42;26.23;;;17.63;;
15327;SDS011;7764;51.430;6.840;2023-10-13T04:04:12;24.50;;;18.27;;
15327;SDS011;7764;51.430;6.840;2023-10-13T04:06:40;26.52;;;18.25;;
15327;SDS011;7764;51.430;6.840;2023-10-13T04:09:28;28.20;;;19.17;;
15327;SDS011;7764;51.430;6.840;2023-10-13T04:12:25;25.67;;;17.58;;
15327;SDS011;7764;51.430;6.840;2023-10-13T04:15:11;29.08;;;20.77;;
15327;SDS011;7764;51.430;6.840;2023-10-13T04:17:43;30.67;;;22.27;;
15327;SDS011;7764;51.430;6.840;2023-10-13T04:20:11;24.30;;;18.13;;
15327;SDS011;7764;51.430;6.840;2023-10-13T04:22:53;24.45;;;17.48;;
15327;SDS011;7764;51.430;6.840;2023-10-13T04:25:34;26.95;;;18.13;;
15327;SDS011;7764;51.430;6.840;2023-10-13T04:28:17;55.35;;;41.63;;
15327;SDS011;7764;51.430;6.840;2023-10-13T04:31:01;25.08;;;17.83;;
15327;SDS011;7764;51.430;6.840;2023-10-13T04:33:36;25.83;;;18.27;;
15327;SDS011;7764;51.430;6.840;2023-10-13T04:36:17;25.02;;;18.08;;
15327;SDS011;7764;51.430;6.840;2023-10-13T04:39:01;22.63;;;16.92;;
15327;SDS011;7764;51.430;6.840;2023-10-13T04:41:34;26.50;;;18.25;;
15327;SDS011;7764;51.430;6.840;2023-10-13T04:44:04;27.27;;;17.98;;
15327;SDS011;7764;51.430;6.840;2023-10-13T04:46:56;24.45;;;18.23;;
15327;SDS011;7764;51.430;6.840;2023-10-13T04:49:34;25.63;;;17.15;;
15327;SDS011;7764;51.430;6.840;2023-10-13T04:52:15;22.67;;;17.23;;
15327;SDS011;7764;51.430;6.840;2023-10-13T04:55:04;23.23;;;17.77;;
15327;SDS011;7764;51.430;6.840;2023-10-13T04:57:52;26.17;;;18.23;;
15327;SDS011;7764;51.430;6.840;2023-10-13T05:00:36;27.25;;;18.20;;
15327;SDS011;7764;51.430;6.840;2023-10-13T05:03:22;27.25;;;17.50;;
15327;SDS011;7764;51.430;6.840;2023-10-13T05:06:05;25.38;;;16.92;;
15327;SDS011;7764;51.430;6.840;2023-10-13T05:08:52;26.05;;;17.67;;
15327;SDS011;7764;51.430;6.840;2023-10-13T05:11:32;24.92;;;18.02;;
15327;SDS011;7764;51.430;6.840;2023-10-13T05:14:17;26.50;;;17.55;;
15327;SDS011;7764;51.430;6.840;2023-10-13T05:17:01;27.48;;;19.20;;
15327;SDS011;7764;51.430;6.840;2023-10-13T05:19:47;28.20;;;18.55;;
15327;SDS011;7764;51.430;6.840;2023-10-13T05:22:31;25.50;;;17.60;;
15327;SDS011;7764;51.430;6.840;2023-10-13T05:25:16;29.17;;;18.70;;
15327;SDS011;7764;51.430;6.840;2023-10-13T05:28:00;28.42;;;19.05;;
15327;SDS011;7764;51.430;6.840;2023-10-13T05:30:44;30.10;;;18.88;;
15327;SDS011;7764;51.430;6.840;2023-10-13T05:33:28;29.58;;;18.85;;
15327;SDS011;7764;51.430;6.840;2023-10-13T05:36:14;26.55;;;19.02;;
15327;SDS011;7764;51.430;6.840;2023-10-13T05:38:58;31.67;;;18.98;;
15327;SDS011;7764;51.430;6.840;2023-10-13T05:41:42;40.08;;;30.90;;
15327;SDS011;7764;51.430;6.840;2023-10-13T05:44:26;28.98;;;20.10;;
15327;SDS011;7764;51.430;6.840;2023-10-13T05:47:02;27.38;;;19.20;;
15327;SDS011;7764;51.430;6.840;2023-10-13T05:49:43;30.45;;;21.10;;
15327;SDS011;7764;51.430;6.840;2023-10-13T05:52:29;25.33;;;18.60;;
15327;SDS011;7764;51.430;6.840;2023-10-13T05:55:14;29.52;;;18.42;;
15327;SDS011;7764;51.430;6.840;2023-10-13T05:57:58;24.33;;;16.65;;
15327;SDS011;7764;51.430;6.840;2023-10-13T06:00:42;24.13;;;16.25;;
15327;SDS011;7764;51.430;6.840;2023-10-13T06:03:32;26.83;;;16.02;;
15327;SDS011;7764;51.430;6.840;2023-10-13T06:06:16;22.60;;;14.93;;
15327;SDS011;7764;51.430;6.840;2023-10-13T06:09:01;23.23;;;14.68;;
15327;SDS011;7764;51.430;6.840;2023-10-13T06:11:46;27.63;;;15.35;;
15327;SDS011;7764;51.430;6.840;2023-10-13T06:14:30;25.58;;;14.75;;
15327;SDS011;7764;51.430;6.840;2023-10-13T06:17:14;23.30;;;14.57;;
15327;SDS011;7764;51.430;6.840;2023-10-13T06:19:58;20.15;;;13.65;;
15327;SDS011;7764;51.430;6.840;2023-10-13T06:22:42;19.75;;;11.73;;
15327;SDS011;7764;51.430;6.840;2023-10-13T06:25:37;20.33;;;12.15;;
15327;SDS011;7764;51.430;6.840;2023-10-13T06:28:18;22.83;;;14.23;;
15327;SDS011;7764;51.430;6.840;2023-10-13T06:31:03;20.55;;;11.00;;
15327;SDS011;7764;51.430;6.840;2023-10-13T06:33:31;21.50;;;11.20;;
15327;SDS011;7764;51.430;6.840;2023-10-13T06:35:59;22.70;;;12.90;;
15327;SDS011;7764;51.430;6.840;2023-10-13T06:38:26;19.67;;;10.73;;
15327;SDS011;7764;51.430;6.840;2023-10-13T06:41:02;20.58;;;10.30;;
15327;SDS011;7764;51.430;6.840;2023-10-13T06:43:30;19.17;;;10.65;;
15327;SDS011;7764;51.430;6.840;2023-10-13T06:45:58;18.35;;;10.45;;
15327;SDS011;7764;51.430;6.840;2023-10-13T06:48:27;21.08;;;10.45;;
15327;SDS011;7764;51.430;6.840;2023-10-13T06:50:58;19.35;;;10.95;;
15327;SDS011;7764;51.430;6.840;2023-10-13T06:53:29;19.42;;;10.18;;
15327;SDS011;7764;51.430;6.840;2023-10-13T06:56:03;24.45;;;12.70;;
15327;SDS011;7764;51.430;6.840;2023-10-13T06:58:34;19.30;;;10.20;;
15327;SDS011;7764;51.430;6.840;2023-10-13T07:01:06;18.88;;;10.18;;
15327;SDS011;7764;51.430;6.840;2023-10-13T07:03:40;18.80;;;10.00;;
15327;SDS011;7764;51.430;6.840;2023-10-13T07:06:07;20.50;;;10.57;;
15327;SDS011;7764;51.430;6.840;2023-10-13T07:08:36;18.67;;;10.20;;
15327;SDS011;7764;51.430;6.840;2023-10-13T07:11:07;17.25;;;10.65;;
15327;SDS011;7764;51.430;6.840;2023-10-13T07:13:39;15.48;;;10.32;;
15327;SDS011;7764;51.430;6.840;2023-10-13T07:16:12;18.27;;;10.65;;
15327;SDS011;7764;51.430;6.840;2023-10-13T07:18:40;18.92;;;10.73;;
15327;SDS011;7764;51.430;6.840;2023-10-13T07:21:14;23.13;;;11.07;;
15327;SDS011;7764;51.430;6.840;2023-10-13T07:23:41;20.48;;;11.20;;
15327;SDS011;7764;51.430;6.840;2023-10-13T07:26:16;22.35;;;11.25;;
15327;SDS011;7764;51.430;6.840;2023-10-13T07:28:43;24.98;;;16.35;;
15327;SDS011;7764;51.430;6.840;2023-10-13T07:31:12;16.80;;;11.43;;
15327;SDS011;7764;51.430;6.840;2023-10-13T07:33:39;18.40;;;11.68;;
15327;SDS011;7764;51.430;6.840;2023-10-13T07:36:08;21.13;;;11.65;;
15327;SDS011;7764;51.430;6.840;2023-10-13T07:38:43;22.00;;;14.90;;
15327;SDS011;7764;51.430;6.840;2023-10-13T07:44:17;23.02;;;13.57;;
15327;SDS011;7764;51.430;6.840;2023-10-13T07:46:50;16.50;;;12.00;;
15327;SDS011;7764;51.430;6.840;2023-10-13T07:49:25;20.85;;;13.35;;
15327;SDS011;7764;51.430;6.840;2023-10-13T07:51:56;18.75;;;11.55;;
15327;SDS011;7764;51.430;6.840;2023-10-13T07:54:26;21.17;;;11.50;;
15327;SDS011;7764;51.430;6.840;2023-10-13T07:56:54;18.40;;;13.10;;
15327;SDS011;7764;51.430;6.840;2023-10-13T07:59:21;20.02;;;10.50;;
15327;SDS011;7764;51.430;6.840;2023-10-13T08:01:49;15.10;;;9.77;;
15327;SDS011;7764;51.430;6.840;2023-10-13T08:04:37;16.20;;;9.70;;
15327;SDS011;7764;51.430;6.840;2023-10-13T08:07:04;17.63;;;9.75;;
15327;SDS011;7764;51.430;6.840;2023-10-13T08:09:38;16.38;;;9.23;;
15327;SDS011;7764;51.430;6.840;2023-10-13T08:12:07;15.57;;;9.50;;
15327;SDS011;7764;51.430;6.840;2023-10-13T08:14:37;18.75;;;9.80;;
15327;SDS011;7764;51.430;6.840;2023-10-13T08:17:05;19.13;;;10.27;;
15327;SDS011;7764;51.430;6.840;2023-10-13T08:19:35;22.25;;;10.55;;
15327;SDS011;7764;51.430;6.840;2023-10-13T08:22:09;17.70;;;9.73;;
15327;SDS011;7764;51.430;6.840;2023-10-13T08:25:01;23.48;;;10.10;;
15327;SDS011;7764;51.430;6.840;2023-10-13T08:27:58;15.82;;;8.38;;
15327;SDS011;7764;51.430;6.840;2023-10-13T08:30:47;14.50;;;8.43;;
15327;SDS011;7764;51.430;6.840;2023-10-13T08:33:23;16.77;;;8.95;;
15327;SDS011;7764;51.430;6.840;2023-10-13T08:35:52;13.38;;;7.80;;
15327;SDS011;7764;51.430;6.840;2023-10-13T08:38:30;17.58;;;8.05;;
15327;SDS011;7764;51.430;6.840;2023-10-13T08:41:15;14.35;;;7.45;;
15327;SDS011;7764;51.430;6.840;2023-10-13T08:43:56;16.67;;;8.02;;
15327;SDS011;7764;51.430;6.840;2023-10-13T08:46:30;12.43;;;7.40;;
15327;SDS011;7764;51.430;6.840;2023-10-13T08:49:16;16.77;;;7.35;;
15327;SDS011;7764;51.430;6.840;2023-10-13T08:51:48;16.80;;;7.53;;
15327;SDS011;7764;51.430;6.840;2023-10-13T08:54:30;15.15;;;7.88;;
15327;SDS011;7764;51.430;6.840;2023-10-13T08:57:11;14.50;;;7.22;;
15327;SDS011;7764;51.430;6.840;2023-10-13T08:59:55;20.70;;;8.52;;
15327;SDS011;7764;51.430;6.840;2023-10-13T09:02:42;18.42;;;10.85;;
15327;SDS011;7764;51.430;6.840;2023-10-13T09:05:43;16.33;;;7.57;;
15327;SDS011;7764;51.430;6.840;2023-10-13T09:08:26;16.05;;;6.65;;
15327;SDS011;7764;51.430;6.840;2023-10-13T09:11:00;22.52;;;7.38;;
15327;SDS011;7764;51.430;6.840;2023-10-13T09:13:36;14.63;;;7.40;;
15327;SDS011;7764;51.430;6.840;2023-10-13T09:16:10;14.82;;;6.60;;
15327;SDS011;7764;51.430;6.840;2023-10-13T09:18:46;14.93;;;6.95;;
15327;SDS011;7764;51.430;6.840;2023-10-13T09:21:14;11.40;;;6.35;;
15327;SDS011;7764;51.430;6.840;2023-10-13T09:24:12;15.13;;;7.38;;
15327;SDS011;7764;51.430;6.840;2023-10-13T09:26:46;18.45;;;7.38;;
15327;SDS011;7764;51.430;6.840;2023-10-13T09:29:18;15.68;;;7.45;;
15327;SDS011;7764;51.430;6.840;2023-10-13T09:31:47;15.68;;;7.13;;
15327;SDS011;7764;51.430;6.840;2023-10-13T09:34:19;14.65;;;7.60;;
15327;SDS011;7764;51.430;6.840;2023-10-13T09:36:47;15.95;;;7.88;;
15327;SDS011;7764;51.430;6.840;2023-10-13T09:39:21;14.25;;;7.10;;
15327;SDS011;7764;51.430;6.840;2023-10-13T09:41:55;17.02;;;7.40;;
15327;SDS011;7764;51.430;6.840;2023-10-13T09:44:25;17.65;;;7.10;;
15327;SDS011;7764;51.430;6.840;2023-10-13T09:46:57;16.10;;;7.70;;
15327;SDS011;7764;51.430;6.840;2023-10-13T09:49:33;18.02;;;6.90;;
15327;SDS011;7764;51.430;6.840;2023-10-13T09:52:09;15.57;;;7.90;;
15327;SDS011;7764;51.430;6.840;2023-10-13T09:54:44;14.77;;;7.00;;
15327;SDS011;7764;51.430;6.840;2023-10-13T09:57:13;14.43;;;7.45;;
15327;SDS011;7764;51.430;6.840;2023-10-13T09:59:45;23.80;;;19.08;;
15327;SDS011;7764;51.430;6.840;2023-10-13T10:02:18;14.75;;;6.85;;
15327;SDS011;7764;51.430;6.840;2023-10-13T10:04:51;15.73;;;6.80;;
15327;SDS011;7764;51.430;6.840;2023-10-13T10:07:23;16.75;;;7.38;;
15327;SDS011;7764;51.430;6.840;2023-10-13T10:09:55;16.95;;;7.70;;
15327;SDS011;7764;51.430;6.840;2023-10-13T10:12:25;14.75;;;6.85;;
15327;SDS011;7764;51.430;6.840;2023-10-13T10:15:06;16.08;;;7.28;;
15327;SDS011;7764;51.430;6.840;2023-10-13T10:17:40;21.92;;;8.60;;
15327;SDS011;7764;51.430;6.840;2023-10-13T10:20:08;17.15;;;7.10;;
15327;SDS011;7764;51.430;6.840;2023-10-13T10:22:54;17.30;;;9.38;;
15327;SDS011;7764;51.430;6.840;2023-10-13T10:25:28;14.07;;;7.88;;
15327;SDS011;7764;51.430;6.840;2023-10-13T10:28:00;14.05;;;7.93;;
15327;SDS011;7764;51.430;6.840;2023-10-13T10:30:30;16.02;;;7.45;;
15327;SDS011;7764;51.430;6.840;2023-10-13T10:33:01;16.58;;;7.55;;
15327;SDS011;7764;51.430;6.840;2023-10-13T10:35:32;26.33;;;8.80;;
15327;SDS011;7764;51.430;6.840;2023-10-13T10:38:06;15.02;;;7.13;;
15327;SDS011;7764;51.430;6.840;2023-10-13T10:40:48;12.45;;;7.82;;
15327;SDS011;7764;51.430;6.840;2023-10-13T10:43:19;13.32;;;7.82;;
15327;SDS011;7764;51.430;6.840;2023-10-13T10:45:47;15.13;;;8.10;;
15327;SDS011;7764;51.430;6.840;2023-10-13T10:48:17;14.25;;;7.78;;
15327;SDS011;7764;51.430;6.840;2023-10-13T10:50:50;16.25;;;8.00;;
15327;SDS011;7764;51.430;6.840;2023-10-13T10:53:19;15.68;;;8.00;;
15327;SDS011;7764;51.430;6.840;2023-10-13T10:56:03;12.57;;;7.30;;
15327;SDS011;7764;51.430;6.840;2023-10-13T10:58:33;12.02;;;7.50;;
15327;SDS011;7764;51.430;6.840;2023-10-13T11:01:09;17.23;;;8.85;;
15327;SDS011;7764;51.430;6.840;2023-10-13T11:03:38;15.45;;;8.20;;
15327;SDS011;7764;51.430;6.840;2023-10-13T11:06:11;17.13;;;8.30;;
15327;SDS011;7764;51.430;6.840;2023-10-13T11:08:42;15.65;;;8.32;;
15327;SDS011;7764;51.430;6.840;2023-10-13T11:11:16;16.88;;;11.18;;
15327;SDS011;7764;51.430;6.840;2023-10-13T11:13:44;16.70;;;8.93;;
15327;SDS011;7764;51.430;6.840;2023-10-13T11:16:19;15.43;;;7.90;;
15327;SDS011;7764;51.430;6.840;2023-10-13T11:19:00;15.48;;;9.32;;
15327;SDS011;7764;51.430;6.840;2023-10-13T11:21:28;13.88;;;8.38;;
15327;SDS011;7764;51.430;6.840;2023-10-13T11:23:57;14.52;;;8.80;;
15327;SDS011;7764;51.430;6.840;2023-10-13T11:26:33;14.02;;;8.07;;
15327;SDS011;7764;51.430;6.840;2023-10-13T11:29:01;21.25;;;8.70;;
15327;SDS011;7764;51.430;6.840;2023-10-13T11:31:35;14.50;;;8.32;;
15327;SDS011;7764;51.430;6.840;2023-10-13T11:34:05;15.50;;;7.97;;
15327;SDS011;7764;51.430;6.840;2023-10-13T11:36:32;21.05;;;8.98;;
15327;SDS011;7764;51.430;6.840;2023-10-13T11:39:00;16.98;;;8.10;;
15327;SDS011;7764;51.430;6.840;2023-10-13T11:41:30;13.60;;;8.52;;
15327;SDS011;7764;51.430;6.840;2023-10-13T11:44:03;16.27;;;8.30;;
15327;SDS011;7764;51.430;6.840;2023-10-13T11:46:38;16.02;;;7.60;;
15327;SDS011;7764;51.430;6.840;2023-10-13T11:49:22;16.92;;;7.60;;
15327;SDS011;7764;51.430;6.840;2023-10-13T11:52:02;19.17;;;7.60;;
15327;SDS011;7764;51.430;6.840;2023-10-13T11:54:49;21.98;;;7.80;;
15327;SDS011;7764;51.430;6.840;2023-10-13T11:57:16;22.70;;;7.47;;
15327;SDS011;7764;51.430;6.840;2023-10-13T11:59:44;20.17;;;7.90;;
15327;SDS011;7764;51.430;6.840;2023-10-13T12:02:19;22.30;;;9.30;;
15327;SDS011;7764;51.430;6.840;2023-10-13T12:05:05;20.17;;;9.05;;
15327;SDS011;7764;51.430;6.840;2023-10-13T12:07:42;21.33;;;8.90;;
15327;SDS011;7764;51.430;6.840;2023-10-13T12:10:13;15.60;;;7.22;;
15327;SDS011;7764;51.430;6.840;2023-10-13T12:12:54;15.88;;;8.18;;
15327;SDS011;7764;51.430;6.840;2023-10-13T12:15:21;18.15;;;7.78;;
15327;SDS011;7764;51.430;6.840;2023-10-13T12:18:01;19.45;;;9.48;;
15327;SDS011;7764;51.430;6.840;2023-10-13T12:20:30;19.73;;;7.68;;
15327;SDS011;7764;51.430;6.840;2023-10-13T12:23:01;22.35;;;7.78;;
15327;SDS011;7764;51.430;6.840;2023-10-13T12:25:40;21.90;;;7.70;;
15327;SDS011;7764;51.430;6.840;2023-10-13T12:28:20;18.55;;;6.97;;
15327;SDS011;7764;51.430;6.840;2023-10-13T12:30:48;15.02;;;6.93;;
15327;SDS011;7764;51.430;6.840;2023-10-13T12:33:17;17.30;;;7.03;;
15327;SDS011;7764;51.430;6.840;2023-10-13T12:35:54;17.73;;;7.30;;
15327;SDS011;7764;51.430;6.840;2023-10-13T12:38:31;18.42;;;7.32;;
15327;SDS011;7764;51.430;6.840;2023-10-13T12:41:37;17.85;;;7.25;;
15327;SDS011;7764;51.430;6.840;2023-10-13T12:44:22;17.30;;;6.85;;
15327;SDS011;7764;51.430;6.840;2023-10-13T12:47:07;23.40;;;7.95;;
15327;SDS011;7764;51.430;6.840;2023-10-13T12:49:51;17.20;;;7.18;;
15327;SDS011;7764;51.430;6.840;2023-10-13T12:52:26;19.05;;;7.25;;
15327;SDS011;7764;51.430;6.840;2023-10-13T12:54:58;19.48;;;6.57;;
15327;SDS011;7764;51.430;6.840;2023-10-13T12:57:32;18.17;;;7.00;;
15327;SDS011;7764;51.430;6.840;2023-10-13T13:00:09;20.83;;;7.47;;
15327;SDS011;7764;51.430;6.840;2023-10-13T13:02:46;18.73;;;7.43;;
15327;SDS011;7764;51.430;6.840;2023-10-13T13:05:15;15.52;;;7.47;;
15327;SDS011;7764;51.430;6.840;2023-10-13T13:07:49;17.45;;;6.57;;
15327;SDS011;7764;51.430;6.840;2023-10-13T13:10:19;19.33;;;6.50;;
15327;SDS011;7764;51.430;6.840;2023-10-13T13:13:00;17.15;;;7.60;;
15327;SDS011;7764;51.430;6.840;2023-10-13T13:15:27;20.33;;;7.05;;
15327;SDS011;7764;51.430;6.840;2023-10-13T13:17:54;17.17;;;9.85;;
15327;SDS011;7764;51.430;6.840;2023-10-13T13:20:22;19.17;;;6.55;;
15327;SDS011;7764;51.430;6.840;2023-10-13T13:22:54;19.00;;;7.13;;
15327;SDS011;7764;51.430;6.840;2023-10-13T13:25:27;30.08;;;8.30;;
15327;SDS011;7764;51.430;6.840;2023-10-13T13:27:58;29.45;;;7.65;;
15327;SDS011;7764;51.430;6.840;2023-10-13T13:30:30;20.52;;;8.40;;
15327;SDS011;7764;51.430;6.840;2023-10-13T13:32:59;15.27;;;7.25;;
15327;SDS011;7764;51.430;6.840;2023-10-13T13:35:36;23.20;;;7.18;;
15327;SDS011;7764;51.430;6.840;2023-10-13T13:38:04;20.77;;;8.63;;
15327;SDS011;7764;51.430;6.840;2023-10-13T13:40:41;18.95;;;6.80;;
15327;SDS011;7764;51.430;6.840;2023-10-13T13:43:13;17.38;;;6.50;;
15327;SDS011;7764;51.430;6.840;2023-10-13T13:45:56;16.77;;;6.80;;
15327;SDS011;7764;51.430;6.840;2023-10-13T13:48:25;21.17;;;6.50;;
15327;SDS011;7764;51.430;6.840;2023-10-13T13:50:53;22.65;;;11.27;;
15327;SDS011;7764;51.430;6.840;2023-10-13T13:53:30;21.48;;;8.63;;
15327;SDS011;7764;51.430;6.840;2023-10-13T13:56:00;18.38;;;6.40;;
15327;SDS011;7764;51.430;6.840;2023-10-13T13:58:27;20.13;;;6.88;;
15327;SDS011;7764;51.430;6.840;2023-10-13T14:01:00;23.42;;;7.60;;
15327;SDS011;7764;51.430;6.840;2023-10-13T14:03:36;24.02;;;10.93;;
15327;SDS011;7764;51.430;6.840;2023-10-13T14:06:10;23.25;;;7.78;;
15327;SDS011;7764;51.430;6.840;2023-10-13T14:08:46;21.73;;;6.57;;
15327;SDS011;7764;51.430;6.840;2023-10-13T14:11:16;18.60;;;7.22;;
15327;SDS011;7764;51.430;6.840;2023-10-13T14:14:03;23.17;;;7.70;;
15327;SDS011;7764;51.430;6.840;2023-10-13T14:16:37;21.08;;;8.75;;
15327;SDS011;7764;51.430;6.840;2023-10-13T14:19:09;28.00;;;8.48;;
15327;SDS011;7764;51.430;6.840;2023-10-13T14:21:37;23.55;;;7.63;;
15327;SDS011;7764;51.430;6.840;2023-10-13T14:24:05;18.33;;;7.30;;
15327;SDS011;7764;51.430;6.840;2023-10-13T14:26:39;21.33;;;7.25;;
15327;SDS011;7764;51.430;6.840;2023-10-13T14:29:09;22.85;;;7.55;;
15327;SDS011;7764;51.430;6.840;2023-10-13T14:31:39;18.02;;;7.10;;
15327;SDS011;7764;51.430;6.840;2023-10-13T14:34:06;15.15;;;6.45;;
15327;SDS011;7764;51.430;6.840;2023-10-13T14:36:34;16.17;;;6.50;;
15327;SDS011;7764;51.430;6.840;2023-10-13T14:39:01;17.05;;;7.10;;
15327;SDS011;7764;51.430;6.840;2023-10-13T14:41:30;21.67;;;7.00;;
15327;SDS011;7764;51.430;6.840;2023-10-13T14:43:57;18.80;;;6.63;;
15327;SDS011;7764;51.430;6.840;2023-10-13T14:46:31;25.60;;;6.85;;
15327;SDS011;7764;51.430;6.840;2023-10-13T14:49:01;19.13;;;7.22;;
15327;SDS011;7764;51.430;6.840;2023-10-13T14:51:28;20.05;;;6.53;;
15327;SDS011;7764;51.430;6.840;2023-10-13T14:53:57;21.17;;;6.65;;
15327;SDS011;7764;51.430;6.840;2023-10-13T14:56:24;17.60;;;6.82;;
15327;SDS011;7764;51.430;6.840;2023-10-13T14:58:55;18.05;;;6.55;;
15327;SDS011;7764;51.430;6.840;2023-10-13T15:01:23;21.80;;;6.75;;
15327;SDS011;7764;51.430;6.840;2023-10-13T15:03:51;18.27;;;6.32;;
15327;SDS011;7764;51.430;6.840;2023-10-13T15:06:20;18.92;;;5.97;;
15327;SDS011;7764;51.430;6.840;2023-10-13T15:08:50;20.48;;;6.30;;
15327;SDS011;7764;51.430;6.840;2023-10-13T15:11:19;16.58;;;6.28;;
15327;SDS011;7764;51.430;6.840;2023-10-13T15:13:46;19.83;;;7.00;;
15327;SDS011;7764;51.430;6.840;2023-10-13T15:16:17;21.35;;;10.43;;
15327;SDS011;7764;51.430;6.840;2023-10-13T15:18:45;17.67;;;6.78;;
15327;SDS011;7764;51.430;6.840;2023-10-13T15:21:18;13.57;;;5.93;;
15327;SDS011;7764;51.430;6.840;2023-10-13T15:23:46;15.23;;;6.35;;